sensor_id;sensor_type;location;lat;lon;timestamp;P1;durP1;ratioP1;P2;durP2;ratioP2
17921;SDS011;9086;50.966;3.144;2023-08-01T00:00:17;8.30;;;7.47;;
17921;SDS011;9086;50.966;3.144;2023-08-01T00:02:43;8.57;;;7.77;;
17921;SDS011;9086;50.966;3.144;2023-08-01T00:05:10;9.43;;;8.50;;
17921;SDS011;9086;50.966;3.144;2023-08-01T00:07:36;10.38;;;9.00;;
17921;SDS011;9086;50.966;3.144;2023-08-01T00:10:02;8.30;;;7.30;;
17921;SDS011;9086;50.966;3.144;2023-08-01T00:12:28;12.17;;;7.93;;
17921;SDS011;9086;50.966;3.144;2023-08-01T00:14:54;11.13;;;9.48;;
17921;SDS011;9086;50.966;3.144;2023-08-01T00:17:20;9.23;;;8.07;;
17921;SDS011;9086;50.966;3.144;2023-08-01T00:19:46;11.43;;;9.10;;
17921;SDS011;9086;50.966;3.144;2023-08-01T00:22:12;11.67;;;9.03;;
17921;SDS011;9086;50.966;3.144;2023-08-01T00:24:38;10.57;;;8.77;;
17921;SDS011;9086;50.966;3.144;2023-08-01T00:27:05;11.70;;;8.00;;
17921;SDS011;9086;50.966;3.144;2023-08-01T00:29:34;9.47;;;8.53;;
17921;SDS011;9086;50.966;3.144;2023-08-01T00:32:00;13.00;;;9.17;;
17921;SDS011;9086;50.966;3.144;2023-08-01T00:34:26;10.60;;;9.33;;
17921;SDS011;9086;50.966;3.144;2023-08-01T00:36:52;10.73;;;8.53;;
17921;SDS011;9086;50.966;3.144;2023-08-01T00:39:18;13.03;;;9.40;;
17921;SDS011;9086;50.966;3.144;2023-08-01T00:41:44;10.33;;;9.30;;
17921;SDS011;9086;50.966;3.144;2023-08-01T00:44:10;11.97;;;9.27;;
17921;SDS011;9086;50.966;3.144;2023-08-01T00:46:36;12.50;;;11.13;;
17921;SDS011;9086;50.966;3.144;2023-08-01T00:49:02;10.67;;;9.57;;
17921;SDS011;9086;50.966;3.144;2023-08-01T00:51:29;16.80;;;11.60;;
17921;SDS011;9086;50.966;3.144;2023-08-01T00:53:56;13.10;;;9.93;;
17921;SDS011;9086;50.966;3.144;2023-08-01T00:56:22;12.57;;;10.57;;
17921;SDS011;9086;50.966;3.144;2023-08-01T00:58:48;14.53;;;10.10;;
17921;SDS011;9086;50.966;3.144;2023-08-01T01:01:14;13.40;;;10.03;;
17921;SDS011;9086;50.966;3.144;2023-08-01T01:03:40;13.17;;;11.47;;
17921;SDS011;9086;50.966;3.144;2023-08-01T01:08:32;14.87;;;10.10;;
17921;SDS011;9086;50.966;3.144;2023-08-01T01:10:58;11.97;;;10.80;;
17921;SDS011;9086;50.966;3.144;2023-08-01T01:13:24;14.23;;;10.23;;
17921;SDS011;9086;50.966;3.144;2023-08-01T01:15:50;14.07;;;10.83;;
17921;SDS011;9086;50.966;3.144;2023-08-01T01:18:16;13.37;;;10.67;;
17921;SDS011;9086;50.966;3.144;2023-08-01T01:20:42;13.53;;;10.47;;
17921;SDS011;9086;50.966;3.144;2023-08-01T01:23:08;16.93;;;10.27;;
17921;SDS011;9086;50.966;3.144;2023-08-01T01:25:35;12.87;;;10.93;;
17921;SDS011;9086;50.966;3.144;2023-08-01T01:28:03;12.60;;;10.50;;
17921;SDS011;9086;50.966;3.144;2023-08-01T01:30:29;14.50;;;10.57;;
17921;SDS011;9086;50.966;3.144;2023-08-01T01:32:58;11.30;;;10.13;;
17921;SDS011;9086;50.966;3.144;2023-08-01T01:35:24;14.93;;;10.77;;
17921;SDS011;9086;50.966;3.144;2023-08-01T01:37:50;13.83;;;11.00;;
17921;SDS011;9086;50.966;3.144;2023-08-01T01:40:16;12.97;;;11.20;;
17921;SDS011;9086;50.966;3.144;2023-08-01T01:42:42;12.63;;;10.40;;
17921;SDS011;9086;50.966;3.144;2023-08-01T01:45:08;12.63;;;11.43;;
17921;SDS011;9086;50.966;3.144;2023-08-01T01:47:34;16.87;;;12.10;;
17921;SDS011;9086;50.966;3.144;2023-08-01T01:50:00;15.97;;;10.87;;
17921;SDS011;9086;50.966;3.144;2023-08-01T01:52:26;11.90;;;10.77;;
17921;SDS011;9086;50.966;3.144;2023-08-01T01:54:52;15.83;;;11.43;;
17921;SDS011;9086;50.966;3.144;2023-08-01T01:57:18;12.03;;;10.63;;
17921;SDS011;9086;50.966;3.144;2023-08-01T01:59:44;14.90;;;13.27;;
17921;SDS011;9086;50.966;3.144;2023-08-01T02:02:10;14.30;;;13.00;;
17921;SDS011;9086;50.966;3.144;2023-08-01T02:04:36;15.13;;;12.23;;
17921;SDS011;9086;50.966;3.144;2023-08-01T02:07:02;13.97;;;12.57;;
17921;SDS011;9086;50.966;3.144;2023-08-01T02:09:28;15.17;;;13.73;;
17921;SDS011;9086;50.966;3.144;2023-08-01T02:11:54;15.47;;;12.87;;
17921;SDS011;9086;50.966;3.144;2023-08-01T02:14:20;15.87;;;13.83;;
17921;SDS011;9086;50.966;3.144;2023-08-01T02:16:46;15.23;;;13.67;;
17921;SDS011;9086;50.966;3.144;2023-08-01T02:19:12;14.10;;;12.50;;
17921;SDS011;9086;50.966;3.144;2023-08-01T02:21:38;18.23;;;12.17;;
17921;SDS011;9086;50.966;3.144;2023-08-01T02:24:04;16.50;;;12.83;;
17921;SDS011;9086;50.966;3.144;2023-08-01T02:26:31;15.73;;;14.13;;
17921;SDS011;9086;50.966;3.144;2023-08-01T02:28:56;14.93;;;13.33;;
17921;SDS011;9086;50.966;3.144;2023-08-01T02:31:23;17.37;;;11.70;;
17921;SDS011;9086;50.966;3.144;2023-08-01T02:33:49;17.73;;;13.53;;
17921;SDS011;9086;50.966;3.144;2023-08-01T02:36:15;16.60;;;15.10;;
17921;SDS011;9086;50.966;3.144;2023-08-01T02:38:41;18.67;;;14.97;;
17921;SDS011;9086;50.966;3.144;2023-08-01T02:41:07;19.27;;;14.40;;
17921;SDS011;9086;50.966;3.144;2023-08-01T02:43:33;16.27;;;14.93;;
17921;SDS011;9086;50.966;3.144;2023-08-01T02:46:01;15.63;;;13.83;;
17921;SDS011;9086;50.966;3.144;2023-08-01T02:48:27;18.03;;;13.50;;
17921;SDS011;9086;50.966;3.144;2023-08-01T02:50:53;15.60;;;14.03;;
17921;SDS011;9086;50.966;3.144;2023-08-01T02:53:19;14.73;;;12.60;;
17921;SDS011;9086;50.966;3.144;2023-08-01T02:55:45;14.37;;;12.87;;
17921;SDS011;9086;50.966;3.144;2023-08-01T02:58:11;24.07;;;14.10;;
17921;SDS011;9086;50.966;3.144;2023-08-01T03:00:38;14.93;;;13.50;;
17921;SDS011;9086;50.966;3.144;2023-08-01T03:03:05;17.10;;;14.20;;
17921;SDS011;9086;50.966;3.144;2023-08-01T03:05:31;15.77;;;13.87;;
17921;SDS011;9086;50.966;3.144;2023-08-01T03:07:57;17.40;;;15.60;;
17921;SDS011;9086;50.966;3.144;2023-08-01T03:10:23;13.97;;;12.43;;
17921;SDS011;9086;50.966;3.144;2023-08-01T03:12:49;14.90;;;13.60;;
17921;SDS011;9086;50.966;3.144;2023-08-01T03:15:15;14.63;;;13.10;;
17921;SDS011;9086;50.966;3.144;2023-08-01T03:17:41;15.93;;;12.50;;
17921;SDS011;9086;50.966;3.144;2023-08-01T03:20:07;17.93;;;11.60;;
17921;SDS011;9086;50.966;3.144;2023-08-01T03:22:36;14.23;;;12.43;;
17921;SDS011;9086;50.966;3.144;2023-08-01T03:25:03;14.60;;;11.63;;
17921;SDS011;9086;50.966;3.144;2023-08-01T03:27:32;16.90;;;11.97;;
17921;SDS011;9086;50.966;3.144;2023-08-01T03:29:58;13.80;;;11.00;;
17921;SDS011;9086;50.966;3.144;2023-08-01T03:32:24;14.53;;;11.97;;
17921;SDS011;9086;50.966;3.144;2023-08-01T03:34:50;15.00;;;12.10;;
17921;SDS011;9086;50.966;3.144;2023-08-01T03:37:16;15.63;;;11.23;;
17921;SDS011;9086;50.966;3.144;2023-08-01T03:39:43;11.97;;;10.87;;
17921;SDS011;9086;50.966;3.144;2023-08-01T03:42:09;12.97;;;11.00;;
17921;SDS011;9086;50.966;3.144;2023-08-01T03:44:35;12.37;;;9.80;;
17921;SDS011;9086;50.966;3.144;2023-08-01T03:47:01;10.63;;;9.43;;
17921;SDS011;9086;50.966;3.144;2023-08-01T03:49:27;11.40;;;10.20;;
17921;SDS011;9086;50.966;3.144;2023-08-01T03:51:53;12.70;;;10.90;;
17921;SDS011;9086;50.966;3.144;2023-08-01T03:54:19;12.47;;;11.33;;
17921;SDS011;9086;50.966;3.144;2023-08-01T03:56:45;13.10;;;11.70;;
17921;SDS011;9086;50.966;3.144;2023-08-01T03:59:12;14.13;;;10.13;;
17921;SDS011;9086;50.966;3.144;2023-08-01T04:01:38;11.17;;;10.07;;
17921;SDS011;9086;50.966;3.144;2023-08-01T04:04:04;15.10;;;11.00;;
17921;SDS011;9086;50.966;3.144;2023-08-01T04:06:31;15.67;;;10.47;;
17921;SDS011;9086;50.966;3.144;2023-08-01T04:08:57;10.73;;;9.53;;
17921;SDS011;9086;50.966;3.144;2023-08-01T04:11:25;12.93;;;10.23;;
17921;SDS011;9086;50.966;3.144;2023-08-01T04:13:51;13.67;;;9.43;;
17921;SDS011;9086;50.966;3.144;2023-08-01T04:16:17;10.47;;;9.47;;
17921;SDS011;9086;50.966;3.144;2023-08-01T04:18:43;11.33;;;9.77;;
17921;SDS011;9086;50.966;3.144;2023-08-01T04:21:09;13.00;;;11.60;;
17921;SDS011;9086;50.966;3.144;2023-08-01T04:23:36;9.37;;;8.47;;
17921;SDS011;9086;50.966;3.144;2023-08-01T04:26:02;12.10;;;10.43;;
17921;SDS011;9086;50.966;3.144;2023-08-01T04:28:31;13.37;;;8.80;;
17921;SDS011;9086;50.966;3.144;2023-08-01T04:30:57;13.13;;;9.20;;
17921;SDS011;9086;50.966;3.144;2023-08-01T04:33:23;13.03;;;8.87;;
17921;SDS011;9086;50.966;3.144;2023-08-01T04:35:49;12.80;;;10.10;;
17921;SDS011;9086;50.966;3.144;2023-08-01T04:38:15;11.87;;;9.27;;
17921;SDS011;9086;50.966;3.144;2023-08-01T04:40:41;13.27;;;9.63;;
17921;SDS011;9086;50.966;3.144;2023-08-01T04:43:08;12.17;;;9.70;;
17921;SDS011;9086;50.966;3.144;2023-08-01T04:45:34;11.53;;;8.00;;
17921;SDS011;9086;50.966;3.144;2023-08-01T04:48:00;12.00;;;9.43;;
17921;SDS011;9086;50.966;3.144;2023-08-01T04:50:26;15.90;;;10.07;;
17921;SDS011;9086;50.966;3.144;2023-08-01T04:52:52;13.27;;;9.60;;
17921;SDS011;9086;50.966;3.144;2023-08-01T04:55:18;10.90;;;8.07;;
17921;SDS011;9086;50.966;3.144;2023-08-01T04:57:44;11.33;;;9.43;;
17921;SDS011;9086;50.966;3.144;2023-08-01T05:00:10;10.73;;;9.67;;
17921;SDS011;9086;50.966;3.144;2023-08-01T05:02:36;10.03;;;8.93;;
17921;SDS011;9086;50.966;3.144;2023-08-01T05:05:03;12.47;;;9.37;;
17921;SDS011;9086;50.966;3.144;2023-08-01T05:07:30;10.93;;;8.93;;
17921;SDS011;9086;50.966;3.144;2023-08-01T05:09:56;13.10;;;9.03;;
17921;SDS011;9086;50.966;3.144;2023-08-01T05:12:22;16.70;;;8.57;;
17921;SDS011;9086;50.966;3.144;2023-08-01T05:14:48;13.63;;;9.43;;
17921;SDS011;9086;50.966;3.144;2023-08-01T05:17:14;12.00;;;9.90;;
17921;SDS011;9086;50.966;3.144;2023-08-01T05:19:40;12.73;;;8.40;;
17921;SDS011;9086;50.966;3.144;2023-08-01T05:22:06;10.80;;;9.37;;
17921;SDS011;9086;50.966;3.144;2023-08-01T05:24:32;13.13;;;9.00;;
17921;SDS011;9086;50.966;3.144;2023-08-01T05:26:58;12.43;;;9.97;;
17921;SDS011;9086;50.966;3.144;2023-08-01T05:29:24;10.70;;;9.50;;
17921;SDS011;9086;50.966;3.144;2023-08-01T05:31:50;9.87;;;9.03;;
17921;SDS011;9086;50.966;3.144;2023-08-01T05:34:16;13.67;;;9.67;;
17921;SDS011;9086;50.966;3.144;2023-08-01T05:36:42;10.30;;;9.27;;
17921;SDS011;9086;50.966;3.144;2023-08-01T05:39:08;9.93;;;8.97;;
17921;SDS011;9086;50.966;3.144;2023-08-01T05:41:34;12.23;;;9.63;;
17921;SDS011;9086;50.966;3.144;2023-08-01T05:44:01;12.03;;;9.67;;
17921;SDS011;9086;50.966;3.144;2023-08-01T05:46:27;10.63;;;9.50;;
17921;SDS011;9086;50.966;3.144;2023-08-01T05:48:54;13.47;;;10.60;;
17921;SDS011;9086;50.966;3.144;2023-08-01T05:51:20;13.07;;;8.97;;
17921;SDS011;9086;50.966;3.144;2023-08-01T05:53:46;14.30;;;9.73;;
17921;SDS011;9086;50.966;3.144;2023-08-01T05:56:12;11.00;;;10.00;;
17921;SDS011;9086;50.966;3.144;2023-08-01T05:58:38;12.50;;;8.17;;
17921;SDS011;9086;50.966;3.144;2023-08-01T06:01:05;14.53;;;9.60;;
17921;SDS011;9086;50.966;3.144;2023-08-01T06:03:31;13.90;;;9.67;;
17921;SDS011;9086;50.966;3.144;2023-08-01T06:05:57;13.90;;;10.70;;
17921;SDS011;9086;50.966;3.144;2023-08-01T06:08:23;14.60;;;10.30;;
17921;SDS011;9086;50.966;3.144;2023-08-01T06:10:49;13.57;;;11.57;;
17921;SDS011;9086;50.966;3.144;2023-08-01T06:13:15;14.70;;;11.00;;
17921;SDS011;9086;50.966;3.144;2023-08-01T06:15:41;12.03;;;10.83;;
17921;SDS011;9086;50.966;3.144;2023-08-01T06:18:07;11.77;;;10.70;;
17921;SDS011;9086;50.966;3.144;2023-08-01T06:20:33;13.07;;;11.75;;
17921;SDS011;9086;50.966;3.144;2023-08-01T06:23:00;15.47;;;9.17;;
17921;SDS011;9086;50.966;3.144;2023-08-01T06:25:26;13.93;;;10.18;;
17921;SDS011;9086;50.966;3.144;2023-08-01T06:27:52;14.70;;;10.27;;
17921;SDS011;9086;50.966;3.144;2023-08-01T06:30:18;10.43;;;9.43;;
17921;SDS011;9086;50.966;3.144;2023-08-01T06:32:44;11.50;;;9.50;;
17921;SDS011;9086;50.966;3.144;2023-08-01T06:35:10;12.02;;;9.23;;
17921;SDS011;9086;50.966;3.144;2023-08-01T06:37:36;12.52;;;8.38;;
17921;SDS011;9086;50.966;3.144;2023-08-01T06:40:02;9.45;;;8.02;;
17921;SDS011;9086;50.966;3.144;2023-08-01T06:42:29;10.33;;;8.53;;
17921;SDS011;9086;50.966;3.144;2023-08-01T06:44:55;14.18;;;8.82;;
17921;SDS011;9086;50.966;3.144;2023-08-01T06:47:21;9.38;;;8.07;;
17921;SDS011;9086;50.966;3.144;2023-08-01T06:49:47;12.35;;;7.85;;
17921;SDS011;9086;50.966;3.144;2023-08-01T06:52:13;13.10;;;8.65;;
17921;SDS011;9086;50.966;3.144;2023-08-01T06:54:39;10.90;;;8.13;;
17921;SDS011;9086;50.966;3.144;2023-08-01T06:57:06;8.65;;;7.57;;
17921;SDS011;9086;50.966;3.144;2023-08-01T06:59:32;8.30;;;6.45;;
17921;SDS011;9086;50.966;3.144;2023-08-01T07:01:58;14.93;;;7.40;;
17921;SDS011;9086;50.966;3.144;2023-08-01T07:04:25;10.27;;;6.90;;
17921;SDS011;9086;50.966;3.144;2023-08-01T07:06:51;16.92;;;6.88;;
17921;SDS011;9086;50.966;3.144;2023-08-01T07:09:17;13.53;;;6.57;;
17921;SDS011;9086;50.966;3.144;2023-08-01T07:11:43;8.55;;;5.82;;
17921;SDS011;9086;50.966;3.144;2023-08-01T07:14:09;8.95;;;5.47;;
17921;SDS011;9086;50.966;3.144;2023-08-01T07:16:35;10.32;;;6.72;;
17921;SDS011;9086;50.966;3.144;2023-08-01T07:19:01;12.20;;;6.73;;
17921;SDS011;9086;50.966;3.144;2023-08-01T07:21:27;14.77;;;7.18;;
17921;SDS011;9086;50.966;3.144;2023-08-01T07:23:54;10.23;;;7.27;;
17921;SDS011;9086;50.966;3.144;2023-08-01T07:26:20;9.73;;;6.53;;
17921;SDS011;9086;50.966;3.144;2023-08-01T07:28:46;7.00;;;6.03;;
17921;SDS011;9086;50.966;3.144;2023-08-01T07:31:12;9.00;;;6.00;;
17921;SDS011;9086;50.966;3.144;2023-08-01T07:33:38;8.00;;;5.43;;
17921;SDS011;9086;50.966;3.144;2023-08-01T07:36:04;10.90;;;6.10;;
17921;SDS011;9086;50.966;3.144;2023-08-01T07:38:30;8.30;;;4.97;;
17921;SDS011;9086;50.966;3.144;2023-08-01T07:40:57;11.30;;;6.13;;
17921;SDS011;9086;50.966;3.144;2023-08-01T07:43:23;11.35;;;6.45;;
17921;SDS011;9086;50.966;3.144;2023-08-01T07:45:49;11.60;;;5.57;;
17921;SDS011;9086;50.966;3.144;2023-08-01T07:48:15;9.25;;;5.38;;
17921;SDS011;9086;50.966;3.144;2023-08-01T07:50:42;12.40;;;5.60;;
17921;SDS011;9086;50.966;3.144;2023-08-01T07:53:08;8.52;;;5.90;;
17921;SDS011;9086;50.966;3.144;2023-08-01T07:55:34;10.18;;;5.70;;
17921;SDS011;9086;50.966;3.144;2023-08-01T07:58:00;9.35;;;5.30;;
17921;SDS011;9086;50.966;3.144;2023-08-01T08:00:26;10.32;;;6.38;;
17921;SDS011;9086;50.966;3.144;2023-08-01T08:02:52;8.10;;;5.05;;
17921;SDS011;9086;50.966;3.144;2023-08-01T08:05:19;9.52;;;5.78;;
17921;SDS011;9086;50.966;3.144;2023-08-01T08:07:45;11.70;;;6.07;;
17921;SDS011;9086;50.966;3.144;2023-08-01T08:10:11;9.80;;;5.82;;
17921;SDS011;9086;50.966;3.144;2023-08-01T08:12:37;7.60;;;5.43;;
17921;SDS011;9086;50.966;3.144;2023-08-01T08:15:03;7.53;;;5.32;;
17921;SDS011;9086;50.966;3.144;2023-08-01T08:17:29;6.97;;;5.05;;
17921;SDS011;9086;50.966;3.144;2023-08-01T08:19:55;10.02;;;4.70;;
17921;SDS011;9086;50.966;3.144;2023-08-01T08:22:22;9.88;;;5.05;;
17921;SDS011;9086;50.966;3.144;2023-08-01T08:24:48;11.13;;;5.07;;
17921;SDS011;9086;50.966;3.144;2023-08-01T08:27:14;5.18;;;4.50;;
17921;SDS011;9086;50.966;3.144;2023-08-01T08:29:40;11.02;;;5.25;;
17921;SDS011;9086;50.966;3.144;2023-08-01T08:32:06;6.90;;;4.60;;
17921;SDS011;9086;50.966;3.144;2023-08-01T08:34:32;9.55;;;4.80;;
17921;SDS011;9086;50.966;3.144;2023-08-01T08:36:58;9.98;;;3.90;;
17921;SDS011;9086;50.966;3.144;2023-08-01T08:39:24;8.10;;;4.30;;
17921;SDS011;9086;50.966;3.144;2023-08-01T08:41:51;7.43;;;4.25;;
17921;SDS011;9086;50.966;3.144;2023-08-01T08:44:18;6.75;;;3.33;;
17921;SDS011;9086;50.966;3.144;2023-08-01T08:46:46;6.43;;;3.95;;
17921;SDS011;9086;50.966;3.144;2023-08-01T08:49:14;8.70;;;3.55;;
17921;SDS011;9086;50.966;3.144;2023-08-01T08:51:40;6.78;;;3.20;;
17921;SDS011;9086;50.966;3.144;2023-08-01T08:54:07;5.00;;;3.38;;
17921;SDS011;9086;50.966;3.144;2023-08-01T08:56:33;9.68;;;3.70;;
17921;SDS011;9086;50.966;3.144;2023-08-01T08:59:00;7.20;;;3.42;;
17921;SDS011;9086;50.966;3.144;2023-08-01T09:01:26;8.43;;;3.08;;
17921;SDS011;9086;50.966;3.144;2023-08-01T09:03:53;5.47;;;3.65;;
17921;SDS011;9086;50.966;3.144;2023-08-01T09:06:21;6.95;;;3.20;;
17921;SDS011;9086;50.966;3.144;2023-08-01T09:08:56;5.78;;;3.08;;
17921;SDS011;9086;50.966;3.144;2023-08-01T09:11:24;9.75;;;3.55;;
17921;SDS011;9086;50.966;3.144;2023-08-01T09:13:50;5.55;;;2.85;;
17921;SDS011;9086;50.966;3.144;2023-08-01T09:16:17;6.18;;;2.63;;
17921;SDS011;9086;50.966;3.144;2023-08-01T09:18:50;6.18;;;2.42;;
17921;SDS011;9086;50.966;3.144;2023-08-01T09:21:22;5.60;;;2.53;;
17921;SDS011;9086;50.966;3.144;2023-08-01T09:23:48;6.82;;;2.67;;
17921;SDS011;9086;50.966;3.144;2023-08-01T09:26:14;7.15;;;2.42;;
17921;SDS011;9086;50.966;3.144;2023-08-01T09:28:41;7.68;;;3.20;;
17921;SDS011;9086;50.966;3.144;2023-08-01T09:31:07;4.13;;;2.40;;
17921;SDS011;9086;50.966;3.144;2023-08-01T09:33:42;9.77;;;2.88;;
17921;SDS011;9086;50.966;3.144;2023-08-01T09:36:20;4.57;;;2.15;;
17921;SDS011;9086;50.966;3.144;2023-08-01T09:38:47;9.38;;;2.92;;
17921;SDS011;9086;50.966;3.144;2023-08-01T09:41:18;6.20;;;2.10;;
17921;SDS011;9086;50.966;3.144;2023-08-01T09:43:45;7.38;;;2.35;;
17921;SDS011;9086;50.966;3.144;2023-08-01T09:46:12;4.38;;;2.28;;
17921;SDS011;9086;50.966;3.144;2023-08-01T09:48:38;6.35;;;2.53;;
17921;SDS011;9086;50.966;3.144;2023-08-01T09:51:08;5.90;;;2.45;;
17921;SDS011;9086;50.966;3.144;2023-08-01T09:53:35;6.47;;;2.35;;
17921;SDS011;9086;50.966;3.144;2023-08-01T09:56:01;3.25;;;2.42;;
17921;SDS011;9086;50.966;3.144;2023-08-01T09:58:34;4.72;;;1.95;;
17921;SDS011;9086;50.966;3.144;2023-08-01T10:01:00;5.43;;;1.88;;
17921;SDS011;9086;50.966;3.144;2023-08-01T10:03:29;5.35;;;2.13;;
17921;SDS011;9086;50.966;3.144;2023-08-01T10:05:56;5.95;;;2.05;;
17921;SDS011;9086;50.966;3.144;2023-08-01T10:08:23;6.35;;;1.92;;
17921;SDS011;9086;50.966;3.144;2023-08-01T10:10:53;3.55;;;1.77;;
17921;SDS011;9086;50.966;3.144;2023-08-01T10:13:22;4.88;;;2.10;;
17921;SDS011;9086;50.966;3.144;2023-08-01T10:15:49;3.53;;;1.80;;
17921;SDS011;9086;50.966;3.144;2023-08-01T10:18:15;5.00;;;1.60;;
17921;SDS011;9086;50.966;3.144;2023-08-01T10:20:42;4.28;;;1.67;;
17921;SDS011;9086;50.966;3.144;2023-08-01T10:23:09;3.70;;;1.75;;
17921;SDS011;9086;50.966;3.144;2023-08-01T10:25:35;4.03;;;1.48;;
17921;SDS011;9086;50.966;3.144;2023-08-01T10:28:02;4.35;;;1.63;;
17921;SDS011;9086;50.966;3.144;2023-08-01T10:30:29;5.47;;;1.38;;
17921;SDS011;9086;50.966;3.144;2023-08-01T10:32:55;2.45;;;1.60;;
17921;SDS011;9086;50.966;3.144;2023-08-01T10:35:37;4.72;;;1.63;;
17921;SDS011;9086;50.966;3.144;2023-08-01T10:38:04;3.88;;;1.45;;
17921;SDS011;9086;50.966;3.144;2023-08-01T10:40:42;3.90;;;1.50;;
17921;SDS011;9086;50.966;3.144;2023-08-01T10:43:22;4.85;;;1.30;;
17921;SDS011;9086;50.966;3.144;2023-08-01T10:45:59;3.70;;;1.73;;
17921;SDS011;9086;50.966;3.144;2023-08-01T10:48:30;3.00;;;1.63;;
17921;SDS011;9086;50.966;3.144;2023-08-01T10:50:56;4.50;;;1.60;;
17921;SDS011;9086;50.966;3.144;2023-08-01T10:53:23;4.10;;;1.60;;
17921;SDS011;9086;50.966;3.144;2023-08-01T10:55:51;5.72;;;1.65;;
17921;SDS011;9086;50.966;3.144;2023-08-01T10:58:17;5.43;;;1.88;;
17921;SDS011;9086;50.966;3.144;2023-08-01T11:00:43;3.45;;;1.38;;
17921;SDS011;9086;50.966;3.144;2023-08-01T11:03:14;3.10;;;1.63;;
17921;SDS011;9086;50.966;3.144;2023-08-01T11:05:40;4.85;;;1.70;;
17921;SDS011;9086;50.966;3.144;2023-08-01T11:08:06;7.55;;;2.20;;
17921;SDS011;9086;50.966;3.144;2023-08-01T11:10:33;3.47;;;1.80;;
17921;SDS011;9086;50.966;3.144;2023-08-01T11:13:01;7.57;;;1.90;;
17921;SDS011;9086;50.966;3.144;2023-08-01T11:15:27;4.88;;;2.25;;
17921;SDS011;9086;50.966;3.144;2023-08-01T11:17:54;5.97;;;1.80;;
17921;SDS011;9086;50.966;3.144;2023-08-01T11:20:22;4.55;;;1.85;;
17921;SDS011;9086;50.966;3.144;2023-08-01T11:22:52;5.78;;;2.30;;
17921;SDS011;9086;50.966;3.144;2023-08-01T11:25:18;4.95;;;1.60;;
17921;SDS011;9086;50.966;3.144;2023-08-01T11:27:44;6.28;;;1.92;;
17921;SDS011;9086;50.966;3.144;2023-08-01T11:30:10;3.92;;;1.88;;
17921;SDS011;9086;50.966;3.144;2023-08-01T11:32:37;2.28;;;1.38;;
17921;SDS011;9086;50.966;3.144;2023-08-01T11:35:04;4.28;;;1.48;;
17921;SDS011;9086;50.966;3.144;2023-08-01T11:37:30;6.18;;;1.88;;
17921;SDS011;9086;50.966;3.144;2023-08-01T11:39:56;4.70;;;2.17;;
17921;SDS011;9086;50.966;3.144;2023-08-01T11:42:23;8.13;;;2.75;;
17921;SDS011;9086;50.966;3.144;2023-08-01T11:44:49;7.10;;;1.95;;
17921;SDS011;9086;50.966;3.144;2023-08-01T11:47:16;4.60;;;1.98;;
17921;SDS011;9086;50.966;3.144;2023-08-01T11:49:45;8.82;;;2.55;;
17921;SDS011;9086;50.966;3.144;2023-08-01T11:52:21;4.57;;;2.58;;
17921;SDS011;9086;50.966;3.144;2023-08-01T11:54:47;3.63;;;1.63;;
17921;SDS011;9086;50.966;3.144;2023-08-01T11:57:13;3.75;;;1.75;;
17921;SDS011;9086;50.966;3.144;2023-08-01T11:59:50;3.58;;;1.30;;
17921;SDS011;9086;50.966;3.144;2023-08-01T12:02:26;3.42;;;1.77;;
17921;SDS011;9086;50.966;3.144;2023-08-01T12:04:52;6.57;;;1.63;;
17921;SDS011;9086;50.966;3.144;2023-08-01T12:07:19;6.75;;;1.80;;
17921;SDS011;9086;50.966;3.144;2023-08-01T12:10:01;6.28;;;1.90;;
17921;SDS011;9086;50.966;3.144;2023-08-01T12:12:27;8.70;;;1.75;;
17921;SDS011;9086;50.966;3.144;2023-08-01T12:14:54;4.10;;;1.98;;
17921;SDS011;9086;50.966;3.144;2023-08-01T12:17:20;5.47;;;2.30;;
17921;SDS011;9086;50.966;3.144;2023-08-01T12:19:46;3.13;;;1.58;;
17921;SDS011;9086;50.966;3.144;2023-08-01T12:22:12;2.97;;;1.63;;
17921;SDS011;9086;50.966;3.144;2023-08-01T12:24:39;5.95;;;2.22;;
17921;SDS011;9086;50.966;3.144;2023-08-01T12:27:06;6.72;;;1.92;;
17921;SDS011;9086;50.966;3.144;2023-08-01T12:29:32;4.97;;;2.00;;
17921;SDS011;9086;50.966;3.144;2023-08-01T12:31:58;3.72;;;1.55;;
17921;SDS011;9086;50.966;3.144;2023-08-01T12:34:24;4.80;;;1.55;;
17921;SDS011;9086;50.966;3.144;2023-08-01T12:36:50;5.82;;;1.38;;
17921;SDS011;9086;50.966;3.144;2023-08-01T12:39:16;5.45;;;1.58;;
17921;SDS011;9086;50.966;3.144;2023-08-01T12:41:42;4.07;;;1.52;;
17921;SDS011;9086;50.966;3.144;2023-08-01T12:44:08;5.05;;;2.35;;
17921;SDS011;9086;50.966;3.144;2023-08-01T12:46:34;5.05;;;1.75;;
17921;SDS011;9086;50.966;3.144;2023-08-01T12:49:00;4.32;;;2.00;;
17921;SDS011;9086;50.966;3.144;2023-08-01T12:51:27;6.07;;;1.75;;
17921;SDS011;9086;50.966;3.144;2023-08-01T12:53:53;4.38;;;1.58;;
17921;SDS011;9086;50.966;3.144;2023-08-01T12:56:19;4.38;;;1.65;;
17921;SDS011;9086;50.966;3.144;2023-08-01T12:58:45;3.58;;;1.52;;
17921;SDS011;9086;50.966;3.144;2023-08-01T13:01:11;4.68;;;1.65;;
17921;SDS011;9086;50.966;3.144;2023-08-01T13:03:37;3.08;;;1.35;;
17921;SDS011;9086;50.966;3.144;2023-08-01T13:06:03;4.32;;;1.55;;
17921;SDS011;9086;50.966;3.144;2023-08-01T13:08:29;3.83;;;1.70;;
17921;SDS011;9086;50.966;3.144;2023-08-01T13:10:56;3.47;;;1.65;;
17921;SDS011;9086;50.966;3.144;2023-08-01T13:13:24;5.78;;;1.73;;
17921;SDS011;9086;50.966;3.144;2023-08-01T13:15:50;6.15;;;1.55;;
17921;SDS011;9086;50.966;3.144;2023-08-01T13:18:16;5.75;;;1.40;;
17921;SDS011;9086;50.966;3.144;2023-08-01T13:20:42;3.30;;;1.33;;
17921;SDS011;9086;50.966;3.144;2023-08-01T13:23:08;3.33;;;1.10;;
17921;SDS011;9086;50.966;3.144;2023-08-01T13:25:35;3.78;;;1.33;;
17921;SDS011;9086;50.966;3.144;2023-08-01T13:28:01;5.50;;;1.35;;
17921;SDS011;9086;50.966;3.144;2023-08-01T13:30:27;2.90;;;1.48;;
17921;SDS011;9086;50.966;3.144;2023-08-01T13:32:53;6.30;;;1.52;;
17921;SDS011;9086;50.966;3.144;2023-08-01T13:35:19;3.83;;;1.70;;
17921;SDS011;9086;50.966;3.144;2023-08-01T13:37:45;4.18;;;1.40;;
17921;SDS011;9086;50.966;3.144;2023-08-01T13:40:11;4.18;;;1.73;;
17921;SDS011;9086;50.966;3.144;2023-08-01T13:42:39;5.00;;;1.67;;
17921;SDS011;9086;50.966;3.144;2023-08-01T13:45:06;4.50;;;1.90;;
17921;SDS011;9086;50.966;3.144;2023-08-01T13:47:32;6.43;;;1.83;;
17921;SDS011;9086;50.966;3.144;2023-08-01T13:49:58;3.00;;;1.77;;
17921;SDS011;9086;50.966;3.144;2023-08-01T13:52:24;3.17;;;1.75;;
17921;SDS011;9086;50.966;3.144;2023-08-01T13:54:50;4.60;;;1.80;;
17921;SDS011;9086;50.966;3.144;2023-08-01T13:57:17;7.95;;;2.20;;
17921;SDS011;9086;50.966;3.144;2023-08-01T13:59:43;6.03;;;1.77;;
17921;SDS011;9086;50.966;3.144;2023-08-01T14:02:09;4.55;;;1.65;;
17921;SDS011;9086;50.966;3.144;2023-08-01T14:04:35;5.68;;;1.77;;
17921;SDS011;9086;50.966;3.144;2023-08-01T14:07:01;6.38;;;2.53;;
17921;SDS011;9086;50.966;3.144;2023-08-01T14:09:27;6.80;;;2.03;;
17921;SDS011;9086;50.966;3.144;2023-08-01T14:11:57;3.72;;;1.85;;
17921;SDS011;9086;50.966;3.144;2023-08-01T14:14:23;4.63;;;1.83;;
17921;SDS011;9086;50.966;3.144;2023-08-01T14:16:49;5.97;;;2.00;;
17921;SDS011;9086;50.966;3.144;2023-08-01T14:19:15;6.40;;;2.08;;
17921;SDS011;9086;50.966;3.144;2023-08-01T14:21:41;5.18;;;2.13;;
17921;SDS011;9086;50.966;3.144;2023-08-01T14:24:07;10.48;;;2.40;;
17921;SDS011;9086;50.966;3.144;2023-08-01T14:26:33;8.00;;;2.55;;
17921;SDS011;9086;50.966;3.144;2023-08-01T14:28:59;8.18;;;2.33;;
17921;SDS011;9086;50.966;3.144;2023-08-01T14:31:25;6.55;;;2.00;;
17921;SDS011;9086;50.966;3.144;2023-08-01T14:33:51;4.57;;;2.28;;
17921;SDS011;9086;50.966;3.144;2023-08-01T14:36:17;6.68;;;2.05;;
17921;SDS011;9086;50.966;3.144;2023-08-01T14:38:43;8.90;;;2.60;;
17921;SDS011;9086;50.966;3.144;2023-08-01T14:41:09;7.32;;;2.13;;
17921;SDS011;9086;50.966;3.144;2023-08-01T14:43:35;7.03;;;1.95;;
17921;SDS011;9086;50.966;3.144;2023-08-01T14:46:01;6.30;;;2.00;;
17921;SDS011;9086;50.966;3.144;2023-08-01T14:48:28;4.85;;;2.15;;